Time;durP1;ratioP1;P1;durP2;ratioP2;P2;SDS_P1;SDS_P2;PMS_P1;PMS_P2;Temp;Humidity;BMP_temperature;BMP_pressure;BME280_temperature;BME280_humidity;BME280_pressure;Samples;Min_cycle;Max_cycle;Signal;HPM_P1;HPM_P2
2022/07/14 00:01:50;;;;;;;2.20;1.20;;;;;;;21.30;46.25;100694.25;18351185;32;20093;-56
2022/07/14 00:11:54;;;;;;;6.30;1.87;;;;;;;21.25;46.76;100686.47;18351459;32;20093;-56
2022/07/14 00:21:58;;;;;;;3.22;1.40;;;;;;;21.22;47.42;100681.31;18403782;31;20117;-56
2022/07/14 00:32:02;;;;;;;2.87;1.30;;;;;;;21.19;47.34;100692.91;18350646;32;20113;-57
2022/07/14 00:42:06;;;;;;;2.80;1.40;;;;;;;20.97;48.29;100689.44;18350274;32;20452;-56
2022/07/14 00:52:11;;;;;;;3.05;1.30;;;;;;;20.86;48.16;100698.69;18349720;32;20435;-56
2022/07/14 01:02:14;;;;;;;4.55;1.50;;;;;;;20.60;49.31;100697.94;18348927;32;20093;-57
2022/07/14 01:12:19;;;;;;;3.20;1.58;;;;;;;20.19;50.12;100687.13;18357010;32;20097;-56
2022/07/14 01:22:23;;;;;;;2.50;1.30;;;;;;;19.96;51.02;100695.00;18358635;32;20093;-56
2022/07/14 01:32:27;;;;;;;4.68;1.60;;;;;;;19.30;53.62;100705.28;18358178;32;20137;-56
2022/07/14 01:42:32;;;;;;;3.60;1.37;;;;;;;19.63;52.33;100705.00;18358975;32;20116;-56
2022/07/14 01:52:36;;;;;;;3.15;1.45;;;;;;;19.82;52.03;100687.56;18357513;32;20077;-56
2022/07/14 02:02:40;;;;;;;2.42;1.50;;;;;;;19.90;51.73;100689.91;18357964;32;20113;-56
2022/07/14 02:12:45;;;;;;;3.10;1.50;;;;;;;19.88;51.86;100682.94;18356400;32;20091;-56
2022/07/14 02:22:49;;;;;;;4.68;1.55;;;;;;;19.91;52.21;100681.06;18355968;32;20089;-56
2022/07/14 02:32:53;;;;;;;2.72;1.40;;;;;;;19.89;52.25;100684.66;18408481;31;20098;-56
2022/07/14 02:42:59;;;;;;;3.62;1.42;;;;;;;19.91;52.08;100691.66;18356320;32;20129;-56
2022/07/14 02:53:02;;;;;;;4.32;1.60;;;;;;;19.68;52.62;100687.19;18354975;32;20142;-56
2022/07/14 03:03:08;;;;;;;2.12;1.50;;;;;;;19.62;53.31;100690.03;18354443;32;20089;-56
2022/07/14 03:13:12;;;;;;;1.48;1.12;;;;;;;19.08;55.20;100706.00;18355181;32;20469;-56
2022/07/14 03:23:17;;;;;;;3.62;1.40;;;;;;;19.06;54.93;100710.44;18354888;32;20129;-55
2022/07/14 03:33:21;;;;;;;1.42;1.17;;;;;;;18.97;55.21;100714.25;18406538;31;20093;-55
2022/07/14 03:43:26;;;;;;;2.08;1.40;;;;;;;19.08;54.94;100709.50;18352857;32;20137;-55
2022/07/14 03:53:30;;;;;;;3.25;1.40;;;;;;;19.02;55.02;100706.19;18412926;31;20093;-55
2022/07/14 04:03:35;;;;;;;3.25;1.42;;;;;;;19.29;55.34;100708.84;18364743;31;71840;-55
2022/07/14 04:13:38;;;;;;;4.00;1.60;;;;;;;19.59;54.90;100706.94;18399309;31;20106;-56
2022/07/14 04:23:44;;;;;;;2.53;1.60;;;;;;;20.24;53.63;100709.03;18349508;32;20202;-55
2022/07/14 04:33:47;;;;;;;3.62;1.40;;;;;;;20.49;53.53;100714.25;18400234;31;20093;-55
2022/07/14 04:43:53;;;;;;;3.50;1.60;;;;;;;20.84;53.59;100720.91;18352956;32;20131;-55
2022/07/14 04:53:56;;;;;;;3.42;1.60;;;;;;;21.98;52.07;100709.06;18357528;32;20109;-56
2022/07/14 05:04:01;;;;;;;2.33;1.35;;;;;;;23.13;49.31;100709.00;18356281;32;20132;-55
2022/07/14 05:14:07;;;;;;;2.75;1.30;;;;;;;23.97;46.42;100702.91;18354618;32;20109;-55
2022/07/14 05:24:12;;;;;;;2.30;1.00;;;;;;;24.74;43.02;100706.78;18417695;31;20109;-56
2022/07/14 05:34:16;;;;;;;14.38;1.50;;;;;;;25.19;41.05;100707.75;18410825;31;20101;-55
2022/07/14 05:44:21;;;;;;;1.70;1.02;;;;;;;25.27;39.31;100701.94;18358621;32;20108;-56
2022/07/14 05:54:24;;;;;;;2.83;1.00;;;;;;;25.80;38.71;100689.94;18356567;32;20102;-56
2022/07/14 06:04:29;;;;;;;2.28;1.00;;;;;;;26.40;37.59;100685.28;18410491;31;20334;-55
2022/07/14 06:14:33;;;;;;;6.22;1.20;;;;;;;26.76;35.55;100681.16;18358258;32;20567;-56
2022/07/14 06:24:39;;;;;;;3.80;1.00;;;;;;;27.63;35.43;100680.72;18410741;31;20094;-55
2022/07/14 06:34:49;;;;;;;1.40;0.90;;;;;;;28.15;33.98;100683.34;18411574;31;20093;-56
2022/07/14 06:44:54;;;;;;;2.75;1.20;;;;;;;28.40;32.41;100665.47;18410218;31;20124;-56
2022/07/14 06:54:59;;;;;;;3.78;1.05;;;;;;;28.98;32.09;100659.44;18410999;31;20374;-55
2022/07/14 07:15:26;;;;;;;1.70;0.88;;;;;;;29.65;31.47;100640.03;18344576;32;20156;-55
2022/07/14 07:25:31;;;;;;;3.67;1.10;;;;;;;30.09;30.73;100646.38;18405005;31;20116;-55
2022/07/14 07:35:35;;;;;;;2.80;1.00;;;;;;;30.66;30.70;100648.09;18478329;31;20129;-56
2022/07/14 07:45:43;;;;;;;1.73;1.00;;;;;;;30.75;31.70;100649.16;18555619;31;20097;-56
2022/07/14 07:55:47;;;;;;;2.33;1.20;;;;;;;30.77;30.67;100636.41;18351042;31;20089;-56
2022/07/14 08:05:51;;;;;;;1.85;0.90;;;;;;;30.85;31.51;100634.78;18349303;32;20760;-56
2022/07/14 08:16:15;;;;;;;1.52;0.90;;;;;;;31.70;26.78;100626.63;18350829;31;20111;-56
2022/07/14 08:26:20;;;;;;;1.70;0.90;;;;;;;33.18;24.79;100609.69;18413026;31;20163;-56
2022/07/14 08:36:24;;;;;;;1.05;0.88;;;;;;;33.79;22.95;100604.81;18358925;32;20109;-56
2022/07/14 08:46:29;;;;;;;6.47;0.93;;;;;;;33.89;22.20;100594.75;18356380;32;20711;-56
2022/07/14 08:56:32;;;;;;;1.60;0.60;;;;;;;34.38;21.25;100587.31;18410871;31;20097;-56
2022/07/14 09:06:54;;;;;;;0.70;0.70;;;;;;;35.10;19.99;100586.41;18352284;31;20090;-56
2022/07/14 09:17:15;;;;;;;1.35;0.65;;;;;;;35.39;19.01;100571.63;18367036;31;20093;-57
2022/07/14 09:27:22;;;;;;;4.20;0.70;;;;;;;36.26;18.84;100550.66;18356614;32;20190;-56
2022/07/14 09:37:26;;;;;;;1.97;0.93;;;;;;;36.76;16.78;100538.78;18356415;32;20119;-57
2022/07/14 09:47:31;;;;;;;1.98;1.00;;;;;;;36.63;18.56;100531.16;18406480;31;20112;-56
2022/07/14 09:57:39;;;;;;;0.93;0.65;;;;;;;37.08;16.47;100532.63;18355876;31;20125;-56
2022/07/14 10:07:44;;;;;;;0.52;0.52;;;;;;;37.65;16.28;100523.34;18325037;32;20112;-56
2022/07/14 10:17:52;;;;;;;1.37;0.70;;;;;;;37.84;15.11;100516.59;18404883;31;20101;-56
2022/07/14 10:27:57;;;;;;;0.70;0.60;;;;;;;37.15;15.76;100520.84;18406752;31;20165;-55
2022/07/14 10:38:15;;;;;;;1.12;0.70;;;;;;;36.62;16.54;100506.88;18447283;31;20107;-56
2022/07/14 10:48:33;;;;;;;3.40;0.52;;;;;;;37.43;17.52;100495.88;18354993;32;20093;-57
2022/07/14 10:58:36;;;;;;;2.10;0.60;;;;;;;36.86;15.77;100481.47;18353534;32;20116;-55
2022/07/14 11:08:42;;;;;;;0.60;0.52;;;;;;;37.80;15.14;100463.53;18542423;31;20119;-56
2022/07/14 11:18:46;;;;;;;0.70;0.62;;;;;;;38.14;14.36;100448.62;18353001;32;20121;-56
2022/07/14 11:28:52;;;;;;;1.00;0.40;;;;;;;38.10;14.21;100441.00;18352138;31;20141;-56
2022/07/14 11:39:21;;;;;;;0.95;0.47;;;;;;;38.00;14.21;100431.19;18400396;31;20085;-56
2022/07/14 11:49:26;;;;;;;0.77;0.50;;;;;;;37.64;14.92;100426.34;18352276;32;20134;-56
2022/07/14 11:59:30;;;;;;;2.05;0.55;;;;;;;37.83;13.58;100435.06;18620049;31;20096;-56
2022/07/14 12:09:35;;;;;;;1.00;0.55;;;;;;;37.72;14.71;100406.41;18515987;31;20101;-54
2022/07/14 12:19:48;;;;;;;1.05;0.47;;;;;;;37.99;13.51;100404.97;18352284;32;20111;-56
2022/07/14 12:29:55;;;;;;;1.15;0.70;;;;;;;37.77;14.10;100397.69;18350011;32;20106;-56
2022/07/14 12:39:58;;;;;;;0.60;0.60;;;;;;;38.47;14.20;100382.03;18403131;31;20720;-56
2022/07/14 12:50:19;;;;;;;2.03;0.62;;;;;;;38.82;13.32;100365.09;18347263;32;20126;-56
2022/07/14 13:00:31;;;;;;;1.33;0.52;;;;;;;38.69;13.16;100355.72;18346200;32;20097;-56
2022/07/14 13:10:35;;;;;;;0.80;0.50;;;;;;;39.94;12.26;100349.25;18356184;32;20095;-55
2022/07/14 13:20:50;;;;;;;0.57;0.50;;;;;;;40.54;11.25;100328.78;18408993;31;20195;-56
2022/07/14 13:30:55;;;;;;;0.95;0.70;;;;;;;40.53;10.85;100321.63;18358461;32;20453;-56
2022/07/14 13:40:59;;;;;;;1.73;0.60;;;;;;;40.61;11.23;100310.50;18412014;31;20105;-55
2022/07/14 14:01:40;;;;;;;2.80;0.60;;;;;;;40.57;10.97;100287.38;18458614;32;20116;-56
2022/07/14 14:11:46;;;;;;;2.42;0.57;;;;;;;40.27;11.36;100287.63;18452158;32;20144;-55
2022/07/14 14:21:50;;;;;;;0.68;0.68;;;;;;;39.32;12.05;100275.16;18445105;32;20108;-55
2022/07/14 14:31:58;;;;;;;0.77;0.70;;;;;;;39.42;12.38;100274.03;18373115;31;20380;-56
2022/07/14 14:42:02;;;;;;;1.23;0.90;;;;;;;39.18;11.86;100246.91;18353717;31;20143;-56
2022/07/14 14:52:07;;;;;;;1.98;0.82;;;;;;;38.82;13.22;100254.09;18355552;31;20090;-56
2022/07/14 15:02:10;;;;;;;0.95;0.82;;;;;;;38.64;12.65;100242.78;18355328;32;20361;-56
2022/07/14 15:12:15;;;;;;;2.05;0.65;;;;;;;38.87;13.48;100237.16;18405009;31;20082;-56
2022/07/14 15:22:18;;;;;;;1.02;0.70;;;;;;;38.55;13.54;100222.97;18346083;32;20097;-56
2022/07/14 15:32:23;;;;;;;0.95;0.60;;;;;;;38.65;13.09;100209.03;18351760;32;20153;-55
2022/07/14 15:42:26;;;;;;;2.00;0.62;;;;;;;38.22;13.96;100187.97;18408091;31;20105;-55
2022/07/14 15:52:31;;;;;;;0.80;0.80;;;;;;;38.10;14.10;100190.34;18407806;31;20101;-56
2022/07/14 16:02:34;;;;;;;1.67;0.80;;;;;;;38.03;13.07;100165.75;18354538;32;20120;-56
2022/07/14 16:12:39;;;;;;;2.15;0.73;;;;;;;37.74;13.61;100165.53;18403870;31;20136;-57
2022/07/14 16:22:42;;;;;;;1.65;0.65;;;;;;;37.74;14.09;100151.91;18353467;32;20145;-57
2022/07/14 16:32:46;;;;;;;1.45;0.70;;;;;;;37.37;14.51;100129.19;18405082;31;20116;-56
2022/07/14 16:42:50;;;;;;;1.37;0.70;;;;;;;37.10;14.84;100119.78;18362321;32;20118;-56
2022/07/14 16:52:55;;;;;;;2.58;0.80;;;;;;;36.97;15.66;100121.22;18415956;31;20453;-56
2022/07/14 17:02:58;;;;;;;1.08;0.70;;;;;;;36.63;15.55;100108.94;18520623;31;20565;-56
2022/07/14 17:13:23;;;;;;;1.10;0.75;;;;;;;36.20;15.97;100099.38;18495450;32;20100;-56
2022/07/14 17:23:26;;;;;;;1.15;0.73;;;;;;;35.94;17.23;100092.34;18497919;32;20119;-56
2022/07/14 17:33:31;;;;;;;5.95;1.27;;;;;;;35.57;17.86;100082.16;18496279;32;20119;-56
2022/07/14 17:43:34;;;;;;;6.43;1.23;;;;;;;35.12;20.01;100075.31;18565031;32;20115;-56
2022/07/14 17:53:39;;;;;;;1.95;0.80;;;;;;;34.81;21.75;100072.44;18564132;32;20092;-56
2022/07/14 18:04:02;;;;;;;6.18;1.05;;;;;;;34.11;24.15;100074.59;18562178;31;20419;-56
2022/07/14 18:14:07;;;;;;;1.60;0.70;;;;;;;33.39;26.22;100078.44;18626082;31;20111;-57
2022/07/14 18:24:11;;;;;;;5.60;0.98;;;;;;;32.80;27.07;100074.50;18626418;31;20185;-56
2022/07/14 18:34:17;;;;;;;28.60;16.55;;;;;;;31.99;28.20;100076.25;18628116;31;20096;-56
2022/07/14 18:44:22;;;;;;;10.60;5.28;;;;;;;31.51;26.71;100079.00;18624125;31;20103;-56
2022/07/14 18:54:26;;;;;;;5.15;1.65;;;;;;;31.48;27.07;100090.06;18626634;31;20118;-56
2022/07/14 19:04:30;;;;;;;3.42;1.67;;;;;;;31.20;28.03;100098.06;18389967;31;20127;-56
2022/07/14 19:14:34;;;;;;;3.35;1.10;;;;;;;30.58;30.26;100104.63;18409847;31;20430;-56
2022/07/14 19:24:37;;;;;;;3.33;1.15;;;;;;;30.03;30.08;100100.56;18356591;32;20109;-56
2022/07/14 19:34:42;;;;;;;5.53;2.42;;;;;;;29.89;29.84;100096.44;18410260;31;20113;-56
2022/07/14 19:44:46;;;;;;;1.62;1.10;;;;;;;29.63;30.97;100110.34;18355725;32;20111;-56
2022/07/14 19:54:50;;;;;;;2.47;0.90;;;;;;;28.86;33.00;100112.38;18355198;32;20107;-57
2022/07/14 20:04:54;;;;;;;3.25;0.93;;;;;;;28.35;33.28;100130.84;18354880;32;20093;-56
2022/07/14 20:14:58;;;;;;;1.02;0.90;;;;;;;28.20;33.45;100123.06;18403228;31;20139;-56
2022/07/14 20:25:02;;;;;;;2.10;0.90;;;;;;;27.84;33.81;100120.50;18408617;31;20457;-56
2022/07/14 20:35:07;;;;;;;1.87;1.00;;;;;;;27.46;34.66;100113.62;18406764;31;20101;-56
2022/07/14 20:45:11;;;;;;;3.33;1.00;;;;;;;26.85;37.55;100101.31;18352475;32;20074;-56
2022/07/14 20:55:16;;;;;;;1.45;0.80;;;;;;;26.59;37.28;100093.41;18352946;32;20138;-56
2022/07/14 21:05:19;;;;;;;0.98;0.85;;;;;;;26.38;38.44;100096.72;18406394;31;20378;-57
2022/07/14 21:15:24;;;;;;;3.20;0.95;;;;;;;26.38;37.41;100091.37;18351873;32;20097;-56
2022/07/14 21:25:27;;;;;;;1.52;0.82;;;;;;;26.16;38.74;100084.03;18356220;32;20173;-56
2022/07/14 21:35:32;;;;;;;3.33;1.20;;;;;;;25.86;39.67;100075.44;18414123;31;20102;-56
2022/07/14 21:45:35;;;;;;;3.05;1.00;;;;;;;25.57;41.21;100075.69;18361145;32;20097;-56
2022/07/14 21:55:40;;;;;;;1.75;1.10;;;;;;;25.53;41.33;100060.87;18360405;32;20119;-56
2022/07/14 22:05:44;;;;;;;1.67;1.08;;;;;;;25.33;41.70;100057.75;18359816;32;20389;-56
2022/07/14 22:15:48;;;;;;;7.25;1.80;;;;;;;25.27;41.81;100057.31;18356755;32;20108;-56
2022/07/14 22:25:51;;;;;;;3.45;1.12;;;;;;;25.16;41.77;100044.72;18360485;32;20411;-56
2022/07/14 22:35:56;;;;;;;3.03;1.40;;;;;;;24.97;41.63;100032.63;18359801;32;20098;-58
2022/07/14 22:46:00;;;;;;;2.33;1.25;;;;;;;25.01;42.10;100030.59;18411593;31;20374;-56
2022/07/14 22:56:05;;;;;;;2.97;1.40;;;;;;;24.84;42.90;100016.59;18412103;31;20396;-56
2022/07/14 23:06:09;;;;;;;1.30;1.05;;;;;;;24.73;44.01;100014.63;18358228;31;20553;-56
2022/07/14 23:16:13;;;;;;;2.12;1.20;;;;;;;24.80;43.86;100004.41;18357649;32;20090;-56
2022/07/14 23:26:17;;;;;;;2.42;1.40;;;;;;;24.74;44.07;100008.31;18357372;32;20115;-56
2022/07/14 23:36:28;;;;;;;1.77;1.23;;;;;;;24.60;45.04;100001.25;18358116;31;20073;-56
2022/07/14 23:46:31;;;;;;;1.30;1.17;;;;;;;24.89;44.04;99989.59;18355534;32;20093;-56
2022/07/14 23:56:36;;;;;;;3.35;1.60;;;;;;;25.25;43.69;100000.47;18355869;32;20231;-56
